To NAV CANADA Home Page Login to a new session Search on AWWS site Feedback and Comments Disclaimer Vers la page française équivalente Tips FAQ What's new on the site To the Forecasts and Observations / NOTAM section To "File a Flight Plan" website Publications and other links Update of the User's profile FIC Telephone Numbers My Weather Data Folder Route Weather Data Regional Weather Data Local Weather Data To the Forecasts and Observations / NOTAM section
Request Generated 05/23/2015 at 04:09:12 UTC . Weather information available at that time is displayed.

METAR/TAF

MONTREAL/ST-HUBERT/QC    (show WxCam)

METAR CYHU 230400Z AUTO 29007KT 9SM CLR 05/M05 A3017 RMK SLP216=
METAR CYHU 230300Z AUTO 29011KT 9SM SCT065 05/M06 A3015 RMK SLP212=
METAR CYHU 230200Z AUTO 30006KT 9SM CLR 05/M06 A3014 RMK SLP209=

TAF CYHU 222340Z 2300/2324 32015G25KT P6SM FEW060
FM230200 30008KT P6SM SKC
BECMG 2309/2311 27010KT
BECMG 2315/2317 25015G25KT
RMK FCST BASED ON AUTO OBS. NXT FCST BY 230600Z=
Your time UTC time
Weather data provided by Environment Canada and NAV CANADA